createdAt,value
2023-01-25T00:01:18.506Z,30.83
2023-01-25T00:03:46.579Z,31.37
2023-01-25T00:06:14.709Z,31.63
2023-01-25T00:08:42.818Z,31.57
2023-01-25T00:11:10.843Z,31.63
2023-01-25T00:13:39.014Z,32.27
2023-01-25T00:16:09.110Z,34.30
2023-01-25T00:18:37.355Z,35.57
2023-01-25T00:21:13.706Z,41.60
2023-01-25T00:23:42.082Z,44.43
2023-01-25T00:26:10.216Z,47.03
2023-01-25T00:28:38.647Z,49.07
2023-01-25T00:31:09.441Z,48.93
2023-01-25T00:33:45.401Z,43.03
2023-01-25T00:36:32.607Z,42.73
2023-01-25T00:39:00.800Z,42.57
2023-01-25T00:41:29.083Z,37.70
2023-01-25T00:43:57.964Z,36.73
2023-01-25T00:46:27.440Z,32.30
2023-01-25T00:48:56.322Z,32.63
2023-01-25T00:51:25.528Z,33.37
2023-01-25T00:53:53.952Z,33.10
2023-01-25T00:56:22.094Z,33.20
2023-01-25T00:58:50.469Z,32.13
2023-01-25T01:01:20.394Z,30.53
2023-01-25T01:03:49.912Z,30.03
2023-01-25T01:06:18.067Z,27.60
2023-01-25T01:08:46.583Z,27.43
2023-01-25T01:11:14.720Z,27.60
2023-01-25T01:13:42.837Z,27.30
2023-01-25T01:16:13.715Z,27.27
2023-01-25T01:18:44.254Z,27.20
2023-01-25T01:21:15.269Z,26.47
2023-01-25T01:23:43.853Z,25.37
2023-01-25T01:26:14.485Z,25.30
2023-01-25T01:28:43.152Z,25.43
2023-01-25T01:31:14.534Z,25.80
2023-01-25T01:33:51.277Z,25.13
2023-01-25T01:36:22.973Z,24.80
2023-01-25T01:38:51.387Z,24.00
2023-01-25T01:41:20.146Z,23.93
2023-01-25T01:43:49.113Z,23.93
2023-01-25T01:46:23.396Z,24.60
2023-01-25T01:48:56.263Z,24.93
2023-01-25T01:51:37.491Z,25.73
2023-01-25T01:54:12.429Z,24.77
2023-01-25T01:56:46.785Z,25.33
2023-01-25T01:59:16.366Z,24.77
2023-01-25T02:01:45.828Z,25.13
2023-01-25T02:04:17.568Z,24.97
2023-01-25T02:06:50.178Z,25.57
2023-01-25T02:09:22.604Z,24.87
2023-01-25T02:11:52.185Z,24.17
2023-01-25T02:14:21.975Z,24.27
2023-01-25T02:16:50.164Z,24.00
2023-01-25T02:19:28.379Z,24.90
2023-01-25T02:22:00.278Z,25.20
2023-01-25T02:24:32.171Z,24.13
2023-01-25T02:27:01.862Z,24.37
2023-01-25T02:29:31.264Z,24.10
2023-01-25T02:32:05.873Z,24.50
2023-01-25T02:34:35.846Z,24.47
2023-01-25T02:37:04.817Z,26.83
2023-01-25T02:39:33.102Z,27.27
2023-01-25T02:42:02.602Z,29.03
2023-01-25T02:44:34.574Z,32.03
2023-01-25T02:47:05.205Z,32.83
2023-01-25T02:49:36.589Z,33.77
2023-01-25T02:52:05.749Z,34.40
2023-01-25T02:54:33.890Z,33.13
2023-01-25T02:57:04.649Z,35.17
2023-01-25T02:59:41.674Z,33.80
2023-01-25T03:02:10.079Z,33.37
2023-01-25T03:04:38.507Z,33.33
2023-01-25T03:07:06.732Z,34.17
2023-01-25T03:09:35.071Z,33.83
2023-01-25T03:12:04.975Z,34.63
2023-01-25T03:14:34.970Z,33.70
2023-01-25T03:17:03.239Z,33.10
2023-01-25T03:19:31.923Z,33.47
2023-01-25T03:22:00.186Z,33.70
2023-01-25T03:24:29.255Z,32.70
2023-01-25T03:27:14.150Z,32.47
2023-01-25T03:29:50.480Z,32.50
2023-01-25T03:32:23.244Z,30.90
2023-01-25T03:34:51.586Z,30.27
2023-01-25T03:37:20.902Z,30.20
2023-01-25T03:39:50.026Z,30.80
2023-01-25T03:42:21.714Z,29.40
2023-01-25T03:44:56.151Z,30.00
2023-01-25T03:47:24.415Z,29.27
2023-01-25T03:49:53.161Z,28.70
2023-01-25T03:52:21.452Z,27.60
2023-01-25T03:54:49.548Z,28.10
2023-01-25T03:57:17.817Z,29.20
2023-01-25T04:00:05.577Z,28.50
2023-01-25T04:02:43.443Z,28.83
2023-01-25T04:05:15.526Z,29.03
2023-01-25T04:07:43.725Z,28.83
2023-01-25T04:10:12.703Z,30.80
2023-01-25T04:12:44.969Z,29.67
2023-01-25T04:15:14.932Z,29.80
2023-01-25T04:17:43.003Z,29.37
2023-01-25T04:20:22.739Z,28.87
2023-01-25T04:22:51.167Z,28.97
2023-01-25T04:25:21.328Z,27.83
2023-01-25T04:27:53.905Z,29.07
2023-01-25T04:30:23.505Z,28.20
2023-01-25T04:32:51.904Z,27.83
2023-01-25T04:35:25.181Z,28.47
2023-01-25T04:37:55.303Z,28.90
2023-01-25T04:40:25.734Z,28.63
2023-01-25T04:42:53.873Z,30.60
2023-01-25T04:45:24.032Z,29.63
2023-01-25T04:47:57.818Z,29.60
2023-01-25T04:50:26.146Z,29.90
2023-01-25T04:52:55.414Z,30.00
2023-01-25T04:55:25.007Z,29.87
2023-01-25T04:57:55.372Z,29.90
2023-01-25T05:00:25.498Z,30.77
2023-01-25T05:02:53.686Z,30.10
2023-01-25T05:05:21.912Z,31.30
2023-01-25T05:07:50.404Z,31.40
2023-01-25T05:10:18.730Z,30.83
2023-01-25T05:13:15.852Z,30.50
2023-01-25T05:15:46.578Z,32.03
2023-01-25T05:18:14.824Z,31.47
2023-01-25T05:20:42.922Z,32.00
2023-01-25T05:23:12.067Z,32.07
2023-01-25T05:25:57.694Z,33.07
2023-01-25T05:28:31.234Z,33.17
2023-01-25T05:31:15.603Z,32.93
2023-01-25T05:33:44.192Z,33.03
2023-01-25T05:36:12.392Z,32.07
2023-01-25T05:38:40.506Z,31.53
2023-01-25T05:41:11.087Z,30.77
2023-01-25T05:43:39.373Z,31.00
2023-01-25T05:46:08.701Z,30.40
2023-01-25T05:48:39.590Z,30.30
2023-01-25T05:51:08.104Z,29.77
2023-01-25T05:53:36.189Z,29.87
2023-01-25T05:56:08.509Z,30.53
2023-01-25T05:58:36.666Z,31.10
2023-01-25T06:01:06.157Z,29.87
2023-01-25T06:03:45.023Z,30.27
2023-01-25T06:06:13.879Z,29.80
2023-01-25T06:08:43.296Z,29.87
2023-01-25T06:11:13.196Z,30.70
2023-01-25T06:13:45.593Z,29.57
2023-01-25T06:16:14.073Z,30.73
2023-01-25T06:18:42.835Z,30.77
2023-01-25T06:21:37.154Z,31.77
2023-01-25T06:24:05.722Z,31.27
2023-01-25T06:26:33.896Z,30.13
2023-01-25T06:29:02.074Z,29.60
2023-01-25T06:31:30.358Z,30.13
2023-01-25T06:34:01.141Z,30.20
2023-01-25T06:36:29.721Z,31.87
2023-01-25T06:38:59.399Z,31.00
2023-01-25T06:41:27.857Z,33.03
2023-01-25T06:43:56.029Z,33.50
2023-01-25T06:46:24.239Z,33.50
2023-01-25T06:48:52.632Z,32.53
2023-01-25T06:51:20.789Z,33.43
2023-01-25T06:53:48.899Z,34.03
2023-01-25T06:56:20.830Z,33.80
2023-01-25T06:58:49.600Z,33.57
2023-01-25T07:01:20.327Z,35.53
2023-01-25T07:03:52.795Z,33.97
2023-01-25T07:06:21.295Z,36.63
2023-01-25T07:08:49.611Z,35.20
2023-01-25T07:11:19.585Z,33.80
2023-01-25T07:13:48.899Z,34.57
2023-01-25T07:16:19.398Z,33.23
2023-01-25T07:18:47.896Z,31.77
2023-01-25T07:21:18.429Z,29.97
2023-01-25T07:23:47.013Z,28.50
2023-01-25T07:26:19.538Z,30.13
2023-01-25T07:28:48.827Z,30.77
2023-01-25T07:31:18.297Z,28.83
2023-01-25T07:33:50.190Z,28.57
2023-01-25T07:36:18.540Z,27.13
2023-01-25T07:38:46.723Z,26.70
2023-01-25T07:41:16.446Z,26.23
2023-01-25T07:43:45.993Z,25.33
2023-01-25T07:46:19.636Z,24.90
2023-01-25T07:48:49.637Z,24.20
2023-01-25T07:51:26.681Z,24.00
2023-01-25T07:53:56.579Z,24.20
2023-01-25T07:56:26.537Z,23.43
2023-01-25T07:58:56.770Z,23.77
2023-01-25T08:01:26.474Z,24.20
2023-01-25T08:03:56.657Z,23.80
2023-01-25T08:06:27.676Z,23.50
2023-01-25T08:08:56.566Z,23.77
2023-01-25T08:11:26.239Z,23.63
2023-01-25T08:13:55.923Z,22.97
2023-01-25T08:16:26.082Z,22.97
2023-01-25T08:18:56.415Z,23.13
2023-01-25T08:21:29.138Z,23.33
2023-01-25T08:23:58.821Z,22.90
2023-01-25T08:26:29.749Z,23.40
2023-01-25T08:28:59.642Z,24.80
2023-01-25T08:31:30.077Z,25.30
2023-01-25T08:33:58.764Z,24.60
2023-01-25T08:36:28.218Z,24.80
2023-01-25T08:38:58.184Z,24.43
2023-01-25T08:41:27.203Z,24.60
2023-01-25T08:43:56.887Z,24.67
2023-01-25T08:46:31.289Z,25.40
2023-01-25T08:49:02.008Z,25.20
2023-01-25T08:51:31.732Z,25.40
2023-01-25T08:54:03.963Z,26.50
2023-01-25T08:56:32.295Z,26.90
2023-01-25T08:59:00.360Z,26.10
2023-01-25T09:01:29.840Z,27.10
2023-01-25T09:03:57.967Z,27.77
2023-01-25T09:06:26.073Z,27.90
2023-01-25T09:08:54.230Z,25.60
2023-01-25T09:11:24.392Z,25.77
2023-01-25T09:13:52.547Z,25.23
2023-01-25T09:16:28.472Z,24.80
2023-01-25T09:18:59.747Z,24.17
2023-01-25T09:21:28.161Z,22.47
2023-01-25T09:24:05.893Z,22.27
2023-01-25T09:26:36.237Z,21.40
2023-01-25T09:29:05.089Z,21.63
2023-01-25T09:31:33.782Z,21.40
2023-01-25T09:34:17.292Z,22.30
2023-01-25T09:36:45.638Z,21.53
2023-01-25T09:39:14.193Z,21.53
2023-01-25T09:42:14.908Z,21.90
2023-01-25T09:45:01.439Z,22.07
2023-01-25T09:47:37.217Z,22.27
2023-01-25T09:50:59.568Z,21.70
2023-01-25T09:53:43.601Z,20.23
2023-01-25T09:56:31.173Z,21.67
2023-01-25T09:59:04.541Z,21.10
2023-01-25T10:01:43.095Z,20.77
2023-01-25T10:04:17.925Z,21.37
2023-01-25T10:07:00.290Z,20.87
2023-01-25T10:09:38.879Z,20.37
2023-01-25T10:12:16.394Z,18.90
2023-01-25T10:14:44.608Z,20.30
2023-01-25T10:17:20.011Z,19.00
2023-01-25T10:20:04.510Z,18.53
2023-01-25T10:22:42.370Z,17.80
2023-01-25T10:25:24.569Z,17.03
2023-01-25T10:28:05.270Z,16.20
2023-01-25T10:30:40.053Z,17.63
2023-01-25T10:33:14.778Z,18.83
2023-01-25T10:35:47.536Z,22.13
2023-01-25T10:38:25.292Z,22.27
2023-01-25T10:40:58.437Z,20.77
2023-01-25T10:43:26.915Z,18.57
2023-01-25T10:45:55.096Z,19.17
2023-01-25T10:48:26.449Z,19.23
2023-01-25T10:50:57.686Z,19.30
2023-01-25T10:53:33.783Z,18.50
2023-01-25T10:56:22.869Z,18.23
2023-01-25T10:58:54.459Z,19.30
2023-01-25T11:01:29.592Z,16.37
2023-01-25T11:03:58.205Z,16.83
2023-01-25T11:06:37.425Z,16.00
2023-01-25T11:09:33.379Z,17.83
2023-01-25T11:12:03.086Z,18.40
2023-01-25T11:14:33.140Z,18.37
2023-01-25T11:17:03.872Z,20.17
2023-01-25T11:19:36.799Z,21.30
2023-01-25T11:22:07.164Z,22.10
2023-01-25T11:24:37.879Z,21.00
2023-01-25T11:27:21.807Z,23.20
2023-01-25T11:30:10.632Z,21.83
2023-01-25T11:32:40.998Z,21.37
2023-01-25T11:35:15.002Z,22.13
2023-01-25T11:38:08.049Z,19.13
2023-01-25T11:40:46.369Z,20.83
2023-01-25T11:43:30.298Z,19.53
2023-01-25T11:46:21.430Z,20.30
2023-01-25T11:49:23.250Z,17.00
2023-01-25T11:52:00.736Z,15.13
2023-01-25T11:54:42.862Z,14.00
2023-01-25T11:57:30.547Z,12.97
2023-01-25T12:00:15.440Z,11.73
2023-01-25T12:03:06.199Z,10.93
2023-01-25T12:05:44.515Z,11.30
2023-01-25T12:08:30.956Z,12.37
2023-01-25T12:11:08.033Z,10.57
2023-01-25T12:13:50.635Z,10.43
2023-01-25T12:16:42.013Z,10.27
2023-01-25T12:19:41.754Z,9.33
2023-01-25T12:22:37.566Z,9.63
2023-01-25T12:25:21.677Z,10.70
2023-01-25T12:28:07.835Z,11.43
2023-01-25T12:30:47.116Z,11.37
2023-01-25T12:33:20.853Z,11.13
2023-01-25T12:35:55.895Z,10.77
2023-01-25T12:38:29.197Z,9.17
2023-01-25T12:41:03.915Z,9.07
2023-01-25T12:43:39.419Z,8.30
2023-01-25T12:46:15.987Z,8.30
2023-01-25T12:48:48.738Z,7.60
2023-01-25T12:51:18.959Z,7.33
2023-01-25T12:53:48.344Z,7.90
2023-01-25T12:56:30.207Z,6.90
2023-01-25T12:59:04.671Z,7.10
2023-01-25T13:01:40.289Z,7.40
2023-01-25T13:04:24.389Z,6.90
2023-01-25T13:06:58.493Z,7.17
2023-01-25T13:09:35.928Z,7.33
2023-01-25T13:12:05.488Z,7.50
2023-01-25T13:14:38.310Z,7.40
2023-01-25T13:17:23.841Z,7.77
2023-01-25T13:19:53.556Z,8.03
2023-01-25T13:22:58.991Z,7.97
2023-01-25T13:25:28.574Z,7.93
2023-01-25T13:28:38.954Z,8.50
2023-01-25T13:31:07.213Z,8.90
2023-01-25T13:33:37.896Z,8.80
2023-01-25T13:36:46.652Z,9.13
2023-01-25T13:39:44.699Z,9.30
2023-01-25T13:42:23.625Z,9.17
2023-01-25T13:44:54.547Z,8.97
2023-01-25T13:47:25.872Z,9.00
2023-01-25T13:50:01.442Z,9.20
2023-01-25T13:52:32.500Z,9.50
2023-01-25T13:55:01.158Z,9.73
2023-01-25T13:57:30.885Z,8.67
2023-01-25T14:00:10.693Z,8.20
2023-01-25T14:02:46.330Z,7.97
2023-01-25T14:05:25.763Z,8.30
2023-01-25T14:07:58.304Z,8.00
2023-01-25T14:10:28.986Z,8.57
2023-01-25T14:13:01.261Z,7.93
2023-01-25T14:15:33.956Z,7.73
2023-01-25T14:18:10.930Z,7.53
2023-01-25T14:20:40.837Z,7.80
2023-01-25T14:23:22.338Z,8.77
2023-01-25T14:25:50.828Z,8.23
2023-01-25T14:28:19.809Z,8.67
2023-01-25T14:30:52.900Z,8.50
2023-01-25T14:33:24.256Z,8.90
2023-01-25T14:35:58.540Z,7.90
2023-01-25T14:38:31.587Z,9.43
2023-01-25T14:41:04.316Z,9.17
2023-01-25T14:43:33.380Z,9.17
2023-01-25T14:46:01.509Z,9.57
2023-01-25T14:48:41.540Z,9.70
2023-01-25T14:51:21.483Z,9.53
2023-01-25T14:53:56.710Z,11.27
2023-01-25T14:56:33.326Z,11.03
2023-01-25T14:59:01.878Z,11.47
2023-01-25T15:01:34.082Z,11.13
2023-01-25T15:04:02.395Z,11.30
2023-01-25T15:06:31.834Z,11.37
2023-01-25T15:09:00.006Z,12.27
2023-01-25T15:11:38.861Z,12.33
2023-01-25T15:14:17.671Z,12.27
2023-01-25T15:16:45.992Z,12.97
2023-01-25T15:19:29.451Z,12.90
2023-01-25T15:22:00.591Z,12.87
2023-01-25T15:24:29.124Z,12.80
2023-01-25T15:26:58.391Z,12.70
2023-01-25T15:29:27.796Z,13.20
2023-01-25T15:31:57.251Z,13.80
2023-01-25T15:34:29.562Z,13.63
2023-01-25T15:36:59.101Z,13.37
2023-01-25T15:39:28.961Z,13.43
2023-01-25T15:41:57.189Z,14.83
2023-01-25T15:44:25.265Z,13.17
2023-01-25T15:46:53.703Z,11.97
2023-01-25T15:49:26.579Z,13.23
2023-01-25T15:51:54.986Z,12.13
2023-01-25T15:54:25.209Z,16.27
2023-01-25T15:56:57.223Z,13.83
2023-01-25T15:59:27.137Z,13.63
2023-01-25T16:01:55.378Z,13.63
2023-01-25T16:04:25.284Z,14.13
2023-01-25T16:06:55.097Z,13.27
2023-01-25T16:09:26.874Z,12.53
2023-01-25T16:11:57.012Z,12.73
2023-01-25T16:14:29.252Z,12.57
2023-01-25T16:17:01.522Z,13.60
2023-01-25T16:19:30.093Z,13.63
2023-01-25T16:21:58.644Z,14.23
2023-01-25T16:24:28.490Z,14.27
2023-01-25T16:26:58.656Z,14.63
2023-01-25T16:29:27.523Z,14.80
2023-01-25T16:31:56.105Z,16.03
2023-01-25T16:34:24.380Z,16.83
2023-01-25T16:36:53.237Z,16.10
2023-01-25T16:39:23.745Z,16.40
2023-01-25T16:41:53.689Z,16.60
2023-01-25T16:44:21.884Z,16.27
2023-01-25T16:46:50.513Z,16.93
2023-01-25T16:49:20.489Z,16.33
2023-01-25T16:51:49.206Z,16.93
2023-01-25T16:54:17.597Z,16.20
2023-01-25T16:56:45.725Z,17.37
2023-01-25T16:59:15.193Z,17.03
2023-01-25T17:01:43.369Z,17.20
2023-01-25T17:04:11.874Z,17.80
2023-01-25T17:06:43.230Z,18.10
2023-01-25T17:09:22.991Z,19.17
2023-01-25T17:11:52.136Z,20.33
2023-01-25T17:14:22.175Z,21.90
2023-01-25T17:16:53.730Z,20.40
2023-01-25T17:19:22.250Z,19.57
2023-01-25T17:21:50.481Z,20.33
2023-01-25T17:24:21.035Z,20.60
2023-01-25T17:26:49.329Z,20.40
2023-01-25T17:29:17.531Z,20.97
2023-01-25T17:31:47.189Z,21.33
2023-01-25T17:34:19.358Z,21.03
2023-01-25T17:36:47.915Z,20.53
2023-01-25T17:39:19.445Z,20.07
2023-01-25T17:41:49.234Z,19.73
2023-01-25T17:44:21.459Z,16.30
2023-01-25T17:46:51.801Z,13.90
2023-01-25T17:49:22.545Z,12.40
2023-01-25T17:51:50.798Z,13.27
2023-01-25T17:54:18.942Z,13.40
2023-01-25T17:56:47.080Z,14.33
2023-01-25T17:59:15.143Z,14.10
2023-01-25T18:01:43.788Z,13.23
2023-01-25T18:04:17.542Z,13.13
2023-01-25T18:06:45.767Z,14.17
2023-01-25T18:09:13.991Z,14.90
2023-01-25T18:11:42.299Z,14.43
2023-01-25T18:14:15.260Z,15.60
2023-01-25T18:16:44.765Z,16.20
2023-01-25T18:19:14.516Z,16.70
2023-01-25T18:21:43.500Z,15.20
2023-01-25T18:24:27.309Z,14.40
2023-01-25T18:27:00.234Z,13.73
2023-01-25T18:29:45.516Z,15.13
2023-01-25T18:32:13.795Z,16.40
2023-01-25T18:34:43.321Z,15.73
2023-01-25T18:37:20.638Z,16.00
2023-01-25T18:39:50.032Z,16.00
2023-01-25T18:42:18.630Z,15.10
2023-01-25T18:44:48.553Z,14.63
2023-01-25T18:47:18.956Z,15.93
2023-01-25T18:49:49.836Z,13.53
2023-01-25T18:52:18.751Z,13.77
2023-01-25T18:54:47.128Z,14.33
2023-01-25T18:57:15.538Z,14.40
2023-01-25T18:59:44.527Z,15.23
2023-01-25T19:02:13.814Z,16.10
2023-01-25T19:04:41.990Z,16.70
2023-01-25T19:07:11.484Z,17.67
2023-01-25T19:09:39.653Z,18.67
2023-01-25T19:12:08.303Z,19.70
2023-01-25T19:14:36.613Z,20.90
2023-01-25T19:17:04.741Z,22.33
2023-01-25T19:19:34.069Z,23.70
2023-01-25T19:22:02.478Z,24.33
2023-01-25T19:24:32.039Z,24.13
2023-01-25T19:27:00.219Z,24.20
2023-01-25T19:29:28.486Z,25.50
2023-01-25T19:31:56.700Z,26.13
2023-01-25T19:34:24.986Z,25.60
2023-01-25T19:36:54.033Z,27.83
2023-01-25T19:39:22.278Z,29.33
2023-01-25T19:41:53.241Z,28.97
2023-01-25T19:44:21.982Z,27.93
2023-01-25T19:46:50.166Z,27.93
2023-01-25T19:49:18.565Z,29.20
2023-01-25T19:51:52.971Z,30.63
2023-01-25T19:54:21.924Z,31.63
2023-01-25T19:56:50.813Z,30.77
2023-01-25T19:59:22.191Z,33.30
2023-01-25T20:01:50.580Z,33.13
2023-01-25T20:04:20.828Z,33.23
2023-01-25T20:06:49.182Z,33.80
2023-01-25T20:09:19.832Z,34.47
2023-01-25T20:11:48.414Z,33.00
2023-01-25T20:14:17.053Z,33.63
2023-01-25T20:16:47.117Z,35.30
2023-01-25T20:19:15.341Z,32.27
2023-01-25T20:21:43.581Z,32.33
2023-01-25T20:24:11.857Z,32.03
2023-01-25T20:26:43.014Z,33.07
2023-01-25T20:29:12.833Z,31.27
2023-01-25T20:31:42.591Z,29.97
2023-01-25T20:34:14.961Z,27.53
2023-01-25T20:36:43.777Z,28.90
2023-01-25T20:39:14.241Z,28.63
2023-01-25T20:41:42.820Z,27.13
2023-01-25T20:44:13.838Z,27.20
2023-01-25T20:46:43.259Z,25.33
2023-01-25T20:49:16.714Z,26.50
2023-01-25T20:51:45.591Z,27.00
2023-01-25T20:54:14.333Z,26.97
2023-01-25T20:56:43.166Z,27.80
2023-01-25T20:59:11.594Z,27.90
2023-01-25T21:01:40.138Z,28.00
2023-01-25T21:04:10.977Z,27.47
2023-01-25T21:06:40.555Z,26.97
2023-01-25T21:09:08.637Z,26.97
2023-01-25T21:11:37.031Z,25.87
2023-01-25T21:14:06.120Z,26.27
2023-01-25T21:16:34.277Z,25.53
2023-01-25T21:19:06.550Z,26.70
2023-01-25T21:21:35.786Z,25.17
2023-01-25T21:24:06.020Z,24.27
2023-01-25T21:26:35.599Z,25.57
2023-01-25T21:29:04.492Z,24.03
2023-01-25T21:31:34.328Z,23.33
2023-01-25T21:34:03.778Z,23.90
2023-01-25T21:36:32.034Z,23.83
2023-01-25T21:39:00.163Z,24.57
2023-01-25T21:41:33.523Z,24.27
2023-01-25T21:44:20.305Z,24.00
2023-01-25T21:47:16.435Z,23.83
2023-01-25T21:49:54.662Z,24.87
2023-01-25T21:52:22.832Z,26.23
2023-01-25T21:54:51.055Z,24.67
2023-01-25T21:57:29.599Z,24.80
2023-01-25T22:00:04.440Z,24.33
2023-01-25T22:02:32.933Z,25.20
2023-01-25T22:05:01.050Z,25.00
2023-01-25T22:07:29.226Z,24.70
2023-01-25T22:09:57.296Z,25.53
2023-01-25T22:12:26.894Z,25.03
2023-01-25T22:14:54.982Z,25.73
2023-01-25T22:17:25.682Z,25.50
2023-01-25T22:19:53.830Z,23.00
2023-01-25T22:22:21.884Z,24.20
2023-01-25T22:24:50.015Z,24.93
2023-01-25T22:27:42.386Z,24.10
2023-01-25T22:30:12.809Z,22.60
2023-01-25T22:32:41.203Z,22.90
2023-01-25T22:35:09.848Z,23.80
2023-01-25T22:37:38.907Z,23.03
2023-01-25T22:40:09.023Z,22.97
2023-01-25T22:42:38.695Z,23.10
2023-01-25T22:45:08.339Z,22.77
2023-01-25T22:47:36.422Z,22.23
2023-01-25T22:50:04.787Z,22.27
2023-01-25T22:52:32.906Z,21.43
2023-01-25T22:55:00.969Z,21.97
2023-01-25T22:57:29.075Z,21.77
2023-01-25T22:59:58.615Z,21.30
2023-01-25T23:02:26.733Z,21.50
2023-01-25T23:04:54.828Z,21.87
2023-01-25T23:07:22.979Z,21.90
2023-01-25T23:09:51.795Z,22.30
2023-01-25T23:12:20.672Z,23.47
2023-01-25T23:14:51.688Z,23.23
2023-01-25T23:17:40.220Z,22.20
2023-01-25T23:20:10.781Z,22.97
2023-01-25T23:22:39.235Z,23.07
2023-01-25T23:25:09.024Z,23.50
2023-01-25T23:27:37.510Z,23.70
2023-01-25T23:30:07.377Z,23.93
2023-01-25T23:32:36.961Z,23.77
2023-01-25T23:35:05.703Z,23.20
2023-01-25T23:37:33.869Z,23.30
2023-01-25T23:40:02.117Z,23.37
2023-01-25T23:42:30.350Z,23.43
2023-01-25T23:44:58.399Z,23.73
2023-01-25T23:47:26.515Z,24.10
2023-01-25T23:49:56.041Z,24.67
2023-01-25T23:52:24.123Z,24.47
2023-01-25T23:54:52.206Z,23.80
2023-01-25T23:57:21.805Z,24.67
2023-01-25T23:59:49.855Z,23.07
